LIPRLATI

Guest
Details From LIPR - Rimini Mil
To LATI - Tirana Rinas
Flight Number -
Tags generated
Created
Modified
Stats Distance 361 nm / 668 km
Max Altitude 35,000 ft / 10,668 m
Waypoints 6
Social Downloads 2
Likes 0
Share VATSIM

Download

Looking for another format? Having issues loading an existing format? Contact us
Advertisement - Login to hide

Notes

Basic altitude profile: - Ascent Rate: 2000ft/min - Ascent Speed: 250kts - Cruise Altitude: 35000ft - Cruise Speed: 420kts - Descent Rate: 2000ft/min - Descent Speed: 290kts Options: - Use NATs: yes - Use PACOTS: yes - Use low airways: yes - Use high airways: yes

Route

LIPR DIPEP UL613 LUMAR LATI

ID Type Via Altitude Latitude Longitude Leg Dist Tot Dist Heading (true) Name
O LIPR APT - 0 ft / 0 m 44.02029˚ 12.61175˚ - 0 nm - Rimini Mil
DIPEP FIX - 31,500 ft / 9,601 m 43.34167˚ 14.49194˚ 91 nm 91 nm 116° / 117° -
RIVAM FIX UL613 (AWY-HI) 35,000 ft / 10,668 m 42.49917˚ 15.77278˚ 75 nm 166 nm 131° / 132° -
GARGA FIX UL613 (AWY-HI) 35,000 ft / 10,668 m 42.26667˚ 16.11667˚ 20 nm 187 nm 132° / 133° -
LUMAR FIX UL613 (AWY-HI) 25,500 ft / 7,772 m 41.61861˚ 17.56389˚ 75 nm 263 nm 121° / 122° -
O LATI APT - 0 ft / 0 m 41.41473˚ 19.72057˚ 97 nm 360 nm 96° / 98° Tirana Rinas

Altitude Profile

Advertisement - Login to hide

Weather


0- 5 10 15 20 25 30 35+ Temperature / ° C

Clouds and Precipitation
Forecast for 2017-12-14 12:00 UTC. Updated an hour ago

Ground ~20,000 ft ~40,000 ft Winds

LIPR

Details ICAO LIPR (RMI)
Name Rimini Mil
Region Italy
Timezone Europe/Rome (UTC+1.0)
Stats Elevation 41 ft / 12 m (AMSL)
Location 44.020286° 12.611746°
Runways 1
Magnetic Variation 3.167° E

METAR

LIPR 140815Z 14002KT 9999 SCT020 SCT040 11/06 Q1008

Decode

TAF

Not found

Departure Runways

ID Width Length Bearing (true) Bearing (mag) Surface Threshold Offset Overrun Length
13 148 ft / 45 m 9,818 ft / 2,992 m 127.79° 124.62° Asphalt 1,030 ft / 314 m 846 ft / 258 m
31 148 ft / 45 m 9,818 ft / 2,992 m 307.81° 304.64° Asphalt 1,006 ft / 307 m 376 ft / 115 m

LATI

Details ICAO LATI (TIA)
Name Tirana Rinas
Region Albania
Timezone Europe/Tirane (UTC+1.0)
Stats Elevation 126 ft / 38 m (AMSL)
Location 41.414732° 19.720569°
Runways 1
Magnetic Variation 4.232° E

METAR

LATI 140820Z 15004KT 9999 SCT040 12/08 Q1018 NOSIG

Decode

TAF

TAF LATI 140500Z 1406/1506 VRB05KT 9999 FEW040 SCT050 TEMPO 1109/1118 SCT040 BKN070

Decode

Destination Runways

ID Width Length Bearing (true) Bearing (mag) Surface Threshold Offset Overrun Length
18 148 ft / 45 m 8,984 ft / 2,738 m 174.31° 170.08° Asphalt 500 ft / 152 m 0 ft / 0 m
36 148 ft / 45 m 8,984 ft / 2,738 m 354.31° 350.08° Asphalt 500 ft / 152 m 0 ft / 0 m

Popular Alternatives